sensor_id;sensor_type;location;lat;lon;timestamp;P1;durP1;ratioP1;P2;durP2;ratioP2
10343;SDS011;5217;43.960;10.954;2023-02-27T00:02:23;0.70;;;0.70;;
10343;SDS011;5217;43.960;10.954;2023-02-27T00:04:52;1.23;;;0.80;;
10343;SDS011;5217;43.960;10.954;2023-02-27T00:07:24;0.70;;;0.70;;
10343;SDS011;5217;43.960;10.954;2023-02-27T00:09:54;0.83;;;0.80;;
10343;SDS011;5217;43.960;10.954;2023-02-27T00:12:22;0.80;;;0.80;;
10343;SDS011;5217;43.960;10.954;2023-02-27T00:14:50;0.80;;;0.80;;
10343;SDS011;5217;43.960;10.954;2023-02-27T00:17:19;0.90;;;0.90;;
10343;SDS011;5217;43.960;10.954;2023-02-27T00:19:47;0.80;;;0.80;;
10343;SDS011;5217;43.960;10.954;2023-02-27T00:22:15;0.70;;;0.70;;
10343;SDS011;5217;43.960;10.954;2023-02-27T00:24:45;0.70;;;0.70;;
10343;SDS011;5217;43.960;10.954;2023-02-27T00:27:13;0.80;;;0.80;;
10343;SDS011;5217;43.960;10.954;2023-02-27T00:29:42;0.70;;;0.70;;
10343;SDS011;5217;43.960;10.954;2023-02-27T00:32:10;0.90;;;0.90;;
10343;SDS011;5217;43.960;10.954;2023-02-27T00:34:38;0.63;;;0.63;;
10343;SDS011;5217;43.960;10.954;2023-02-27T00:37:07;0.70;;;0.70;;
10343;SDS011;5217;43.960;10.954;2023-02-27T00:39:36;0.80;;;0.80;;
10343;SDS011;5217;43.960;10.954;2023-02-27T00:42:06;0.73;;;0.73;;
10343;SDS011;5217;43.960;10.954;2023-02-27T00:44:34;0.70;;;0.70;;
10343;SDS011;5217;43.960;10.954;2023-02-27T00:47:03;0.80;;;0.80;;
10343;SDS011;5217;43.960;10.954;2023-02-27T00:49:32;0.73;;;0.70;;
10343;SDS011;5217;43.960;10.954;2023-02-27T00:52:00;0.70;;;0.70;;
10343;SDS011;5217;43.960;10.954;2023-02-27T00:54:28;0.80;;;0.80;;
10343;SDS011;5217;43.960;10.954;2023-02-27T00:56:57;0.80;;;0.80;;
10343;SDS011;5217;43.960;10.954;2023-02-27T00:59:26;1.13;;;0.63;;
10343;SDS011;5217;43.960;10.954;2023-02-27T01:01:55;0.70;;;0.70;;
10343;SDS011;5217;43.960;10.954;2023-02-27T01:04:23;0.93;;;0.80;;
10343;SDS011;5217;43.960;10.954;2023-02-27T01:06:51;0.87;;;0.83;;
10343;SDS011;5217;43.960;10.954;2023-02-27T01:09:20;0.80;;;0.80;;
10343;SDS011;5217;43.960;10.954;2023-02-27T01:11:50;0.70;;;0.70;;
10343;SDS011;5217;43.960;10.954;2023-02-27T01:14:18;0.60;;;0.60;;
10343;SDS011;5217;43.960;10.954;2023-02-27T01:16:48;0.80;;;0.80;;
10343;SDS011;5217;43.960;10.954;2023-02-27T01:19:17;1.40;;;0.70;;
10343;SDS011;5217;43.960;10.954;2023-02-27T01:21:45;0.80;;;0.80;;
10343;SDS011;5217;43.960;10.954;2023-02-27T01:24:13;0.90;;;0.90;;
10343;SDS011;5217;43.960;10.954;2023-02-27T01:26:42;0.70;;;0.70;;
10343;SDS011;5217;43.960;10.954;2023-02-27T01:29:10;0.70;;;0.70;;
10343;SDS011;5217;43.960;10.954;2023-02-27T01:31:38;0.90;;;0.90;;
10343;SDS011;5217;43.960;10.954;2023-02-27T01:34:08;1.00;;;0.90;;
10343;SDS011;5217;43.960;10.954;2023-02-27T01:36:36;0.83;;;0.83;;
10343;SDS011;5217;43.960;10.954;2023-02-27T01:39:05;0.80;;;0.80;;
10343;SDS011;5217;43.960;10.954;2023-02-27T01:41:33;0.93;;;0.90;;
10343;SDS011;5217;43.960;10.954;2023-02-27T01:44:02;0.80;;;0.80;;
10343;SDS011;5217;43.960;10.954;2023-02-27T01:46:32;0.80;;;0.80;;
10343;SDS011;5217;43.960;10.954;2023-02-27T01:49:03;0.90;;;0.90;;
10343;SDS011;5217;43.960;10.954;2023-02-27T01:51:36;0.80;;;0.80;;
10343;SDS011;5217;43.960;10.954;2023-02-27T01:54:07;0.87;;;0.87;;
10343;SDS011;5217;43.960;10.954;2023-02-27T01:56:37;0.90;;;0.90;;
10343;SDS011;5217;43.960;10.954;2023-02-27T01:59:08;0.70;;;0.70;;
10343;SDS011;5217;43.960;10.954;2023-02-27T02:01:38;1.00;;;1.00;;
10343;SDS011;5217;43.960;10.954;2023-02-27T02:04:08;1.00;;;1.00;;
10343;SDS011;5217;43.960;10.954;2023-02-27T02:06:43;0.90;;;0.90;;
10343;SDS011;5217;43.960;10.954;2023-02-27T02:09:15;0.97;;;0.93;;
10343;SDS011;5217;43.960;10.954;2023-02-27T02:11:45;1.00;;;1.00;;
10343;SDS011;5217;43.960;10.954;2023-02-27T02:14:14;0.80;;;0.80;;
10343;SDS011;5217;43.960;10.954;2023-02-27T02:16:53;1.10;;;1.00;;
10343;SDS011;5217;43.960;10.954;2023-02-27T02:25:58;0.90;;;0.90;;
10343;SDS011;5217;43.960;10.954;2023-02-27T02:29:09;1.00;;;1.00;;
10343;SDS011;5217;43.960;10.954;2023-02-27T02:32:01;0.90;;;0.90;;
10343;SDS011;5217;43.960;10.954;2023-02-27T02:34:59;0.80;;;0.80;;
10343;SDS011;5217;43.960;10.954;2023-02-27T02:41:07;0.83;;;0.83;;
10343;SDS011;5217;43.960;10.954;2023-02-27T02:43:45;1.10;;;1.00;;
10343;SDS011;5217;43.960;10.954;2023-02-27T02:46:25;1.00;;;0.90;;
10343;SDS011;5217;43.960;10.954;2023-02-27T02:49:02;0.80;;;0.80;;
10343;SDS011;5217;43.960;10.954;2023-02-27T02:51:38;0.80;;;0.80;;
10343;SDS011;5217;43.960;10.954;2023-02-27T02:54:17;0.80;;;0.80;;
10343;SDS011;5217;43.960;10.954;2023-02-27T02:56:53;1.07;;;1.00;;
10343;SDS011;5217;43.960;10.954;2023-02-27T02:59:28;0.80;;;0.80;;
10343;SDS011;5217;43.960;10.954;2023-02-27T03:02:00;0.70;;;0.70;;
10343;SDS011;5217;43.960;10.954;2023-02-27T03:04:33;0.73;;;0.73;;
10343;SDS011;5217;43.960;10.954;2023-02-27T03:07:08;0.70;;;0.70;;
10343;SDS011;5217;43.960;10.954;2023-02-27T03:09:42;0.77;;;0.77;;
10343;SDS011;5217;43.960;10.954;2023-02-27T03:12:14;1.13;;;1.00;;
10343;SDS011;5217;43.960;10.954;2023-02-27T03:14:49;0.80;;;0.80;;
10343;SDS011;5217;43.960;10.954;2023-02-27T03:17:23;2.60;;;0.90;;
10343;SDS011;5217;43.960;10.954;2023-02-27T03:20:00;1.03;;;0.80;;
10343;SDS011;5217;43.960;10.954;2023-02-27T03:22:34;0.70;;;0.70;;
10343;SDS011;5217;43.960;10.954;2023-02-27T03:25:08;0.70;;;0.70;;
10343;SDS011;5217;43.960;10.954;2023-02-27T03:27:39;0.77;;;0.77;;
10343;SDS011;5217;43.960;10.954;2023-02-27T03:30:11;0.80;;;0.80;;
10343;SDS011;5217;43.960;10.954;2023-02-27T03:32:46;0.80;;;0.80;;
10343;SDS011;5217;43.960;10.954;2023-02-27T03:35:19;0.70;;;0.60;;
10343;SDS011;5217;43.960;10.954;2023-02-27T03:37:51;0.70;;;0.70;;
10343;SDS011;5217;43.960;10.954;2023-02-27T03:40:28;1.13;;;0.90;;
10343;SDS011;5217;43.960;10.954;2023-02-27T03:43:01;0.70;;;0.70;;
10343;SDS011;5217;43.960;10.954;2023-02-27T03:45:38;0.80;;;0.80;;
10343;SDS011;5217;43.960;10.954;2023-02-27T03:48:11;0.80;;;0.80;;
10343;SDS011;5217;43.960;10.954;2023-02-27T03:50:39;0.80;;;0.80;;
10343;SDS011;5217;43.960;10.954;2023-02-27T03:53:09;0.80;;;0.80;;
10343;SDS011;5217;43.960;10.954;2023-02-27T03:55:45;0.63;;;0.63;;
10343;SDS011;5217;43.960;10.954;2023-02-27T03:58:15;0.70;;;0.70;;
10343;SDS011;5217;43.960;10.954;2023-02-27T04:00:44;0.73;;;0.73;;
10343;SDS011;5217;43.960;10.954;2023-02-27T04:03:12;0.80;;;0.80;;
10343;SDS011;5217;43.960;10.954;2023-02-27T04:05:41;0.70;;;0.70;;
10343;SDS011;5217;43.960;10.954;2023-02-27T04:08:31;0.80;;;0.80;;
10343;SDS011;5217;43.960;10.954;2023-02-27T04:11:25;0.70;;;0.70;;
10343;SDS011;5217;43.960;10.954;2023-02-27T04:14:09;0.80;;;0.80;;
10343;SDS011;5217;43.960;10.954;2023-02-27T04:16:51;0.80;;;0.80;;
10343;SDS011;5217;43.960;10.954;2023-02-27T04:19:34;0.87;;;0.87;;
10343;SDS011;5217;43.960;10.954;2023-02-27T04:22:16;0.80;;;0.80;;
10343;SDS011;5217;43.960;10.954;2023-02-27T04:24:57;0.70;;;0.70;;
10343;SDS011;5217;43.960;10.954;2023-02-27T04:27:36;0.80;;;0.80;;
10343;SDS011;5217;43.960;10.954;2023-02-27T04:30:12;0.80;;;0.80;;
10343;SDS011;5217;43.960;10.954;2023-02-27T04:32:47;0.90;;;0.90;;
10343;SDS011;5217;43.960;10.954;2023-02-27T04:35:21;0.80;;;0.80;;
10343;SDS011;5217;43.960;10.954;2023-02-27T04:37:54;0.80;;;0.80;;
10343;SDS011;5217;43.960;10.954;2023-02-27T04:40:27;0.80;;;0.80;;
10343;SDS011;5217;43.960;10.954;2023-02-27T04:43:02;0.70;;;0.70;;
10343;SDS011;5217;43.960;10.954;2023-02-27T04:45:34;0.70;;;0.70;;
10343;SDS011;5217;43.960;10.954;2023-02-27T04:48:07;0.60;;;0.60;;
10343;SDS011;5217;43.960;10.954;2023-02-27T04:50:43;0.70;;;0.70;;
10343;SDS011;5217;43.960;10.954;2023-02-27T04:53:17;0.80;;;0.80;;
10343;SDS011;5217;43.960;10.954;2023-02-27T04:55:50;0.57;;;0.57;;
10343;SDS011;5217;43.960;10.954;2023-02-27T04:58:23;0.70;;;0.70;;
10343;SDS011;5217;43.960;10.954;2023-02-27T05:00:56;0.50;;;0.50;;
10343;SDS011;5217;43.960;10.954;2023-02-27T05:03:28;0.67;;;0.67;;
10343;SDS011;5217;43.960;10.954;2023-02-27T05:06:01;0.70;;;0.70;;
10343;SDS011;5217;43.960;10.954;2023-02-27T05:08:32;0.60;;;0.60;;
10343;SDS011;5217;43.960;10.954;2023-02-27T05:11:05;0.60;;;0.60;;
10343;SDS011;5217;43.960;10.954;2023-02-27T05:13:40;0.70;;;0.70;;
10343;SDS011;5217;43.960;10.954;2023-02-27T05:16:14;0.60;;;0.60;;
10343;SDS011;5217;43.960;10.954;2023-02-27T05:18:47;0.50;;;0.50;;
10343;SDS011;5217;43.960;10.954;2023-02-27T05:21:20;0.60;;;0.60;;
10343;SDS011;5217;43.960;10.954;2023-02-27T05:24:05;0.73;;;0.73;;
10343;SDS011;5217;43.960;10.954;2023-02-27T05:26:45;0.80;;;0.80;;
10343;SDS011;5217;43.960;10.954;2023-02-27T05:29:27;0.70;;;0.70;;
10343;SDS011;5217;43.960;10.954;2023-02-27T05:32:03;0.60;;;0.60;;
10343;SDS011;5217;43.960;10.954;2023-02-27T05:34:41;0.70;;;0.70;;
10343;SDS011;5217;43.960;10.954;2023-02-27T05:37:13;0.67;;;0.67;;
10343;SDS011;5217;43.960;10.954;2023-02-27T05:39:46;0.60;;;0.60;;
10343;SDS011;5217;43.960;10.954;2023-02-27T05:42:20;0.53;;;0.53;;
10343;SDS011;5217;43.960;10.954;2023-02-27T05:44:55;0.60;;;0.60;;
10343;SDS011;5217;43.960;10.954;2023-02-27T05:47:28;0.53;;;0.53;;
10343;SDS011;5217;43.960;10.954;2023-02-27T05:50:04;0.70;;;0.70;;
10343;SDS011;5217;43.960;10.954;2023-02-27T05:52:36;0.60;;;0.60;;
10343;SDS011;5217;43.960;10.954;2023-02-27T05:55:05;0.50;;;0.50;;
10343;SDS011;5217;43.960;10.954;2023-02-27T05:57:45;0.50;;;0.50;;
10343;SDS011;5217;43.960;10.954;2023-02-27T06:00:20;0.70;;;0.70;;
10343;SDS011;5217;43.960;10.954;2023-02-27T06:02:52;0.60;;;0.60;;
10343;SDS011;5217;43.960;10.954;2023-02-27T06:05:20;0.60;;;0.60;;
10343;SDS011;5217;43.960;10.954;2023-02-27T06:07:51;0.63;;;0.63;;
10343;SDS011;5217;43.960;10.954;2023-02-27T06:10:20;0.60;;;0.60;;
10343;SDS011;5217;43.960;10.954;2023-02-27T06:12:49;0.60;;;0.60;;
10343;SDS011;5217;43.960;10.954;2023-02-27T06:15:17;0.60;;;0.60;;
10343;SDS011;5217;43.960;10.954;2023-02-27T06:17:48;0.53;;;0.53;;
10343;SDS011;5217;43.960;10.954;2023-02-27T06:20:17;0.70;;;0.70;;
10343;SDS011;5217;43.960;10.954;2023-02-27T06:22:45;0.60;;;0.60;;
10343;SDS011;5217;43.960;10.954;2023-02-27T06:25:14;0.80;;;0.80;;
10343;SDS011;5217;43.960;10.954;2023-02-27T06:27:43;0.97;;;0.97;;
10343;SDS011;5217;43.960;10.954;2023-02-27T06:30:11;0.90;;;0.90;;
10343;SDS011;5217;43.960;10.954;2023-02-27T06:32:41;3.27;;;3.07;;
10343;SDS011;5217;43.960;10.954;2023-02-27T06:35:10;1.57;;;1.47;;
10343;SDS011;5217;43.960;10.954;2023-02-27T06:37:38;1.30;;;1.20;;
10343;SDS011;5217;43.960;10.954;2023-02-27T06:40:07;1.10;;;1.10;;
10343;SDS011;5217;43.960;10.954;2023-02-27T06:42:37;1.50;;;1.40;;
10343;SDS011;5217;43.960;10.954;2023-02-27T06:45:06;1.00;;;1.00;;
10343;SDS011;5217;43.960;10.954;2023-02-27T06:47:36;1.20;;;1.20;;
10343;SDS011;5217;43.960;10.954;2023-02-27T06:50:06;1.77;;;1.67;;
10343;SDS011;5217;43.960;10.954;2023-02-27T06:52:37;1.57;;;1.47;;
10343;SDS011;5217;43.960;10.954;2023-02-27T06:55:06;1.70;;;1.60;;
10343;SDS011;5217;43.960;10.954;2023-02-27T06:57:36;1.57;;;1.47;;
10343;SDS011;5217;43.960;10.954;2023-02-27T07:00:04;1.50;;;1.40;;
10343;SDS011;5217;43.960;10.954;2023-02-27T07:02:35;1.73;;;1.63;;
10343;SDS011;5217;43.960;10.954;2023-02-27T07:05:06;1.87;;;1.77;;
10343;SDS011;5217;43.960;10.954;2023-02-27T07:07:36;1.60;;;1.50;;
10343;SDS011;5217;43.960;10.954;2023-02-27T07:10:05;1.60;;;1.50;;
10343;SDS011;5217;43.960;10.954;2023-02-27T07:12:34;2.00;;;1.90;;
10343;SDS011;5217;43.960;10.954;2023-02-27T07:15:03;3.10;;;2.80;;
10343;SDS011;5217;43.960;10.954;2023-02-27T07:17:32;4.10;;;3.70;;
10343;SDS011;5217;43.960;10.954;2023-02-27T07:20:01;2.03;;;1.90;;
10343;SDS011;5217;43.960;10.954;2023-02-27T07:22:31;1.50;;;1.40;;
10343;SDS011;5217;43.960;10.954;2023-02-27T07:25:00;1.90;;;1.80;;
10343;SDS011;5217;43.960;10.954;2023-02-27T07:27:28;1.60;;;1.50;;
10343;SDS011;5217;43.960;10.954;2023-02-27T07:29:57;1.80;;;1.70;;
10343;SDS011;5217;43.960;10.954;2023-02-27T07:32:26;1.53;;;1.43;;
10343;SDS011;5217;43.960;10.954;2023-02-27T07:34:54;1.57;;;1.47;;
10343;SDS011;5217;43.960;10.954;2023-02-27T07:37:23;1.33;;;1.23;;
10343;SDS011;5217;43.960;10.954;2023-02-27T07:39:54;1.20;;;1.10;;
10343;SDS011;5217;43.960;10.954;2023-02-27T07:42:23;1.17;;;1.17;;
10343;SDS011;5217;43.960;10.954;2023-02-27T07:44:51;1.23;;;1.13;;
10343;SDS011;5217;43.960;10.954;2023-02-27T07:47:19;1.00;;;1.00;;
10343;SDS011;5217;43.960;10.954;2023-02-27T07:49:48;0.93;;;0.93;;
10343;SDS011;5217;43.960;10.954;2023-02-27T07:52:16;1.20;;;1.20;;
10343;SDS011;5217;43.960;10.954;2023-02-27T07:54:45;1.47;;;1.37;;
10343;SDS011;5217;43.960;10.954;2023-02-27T07:57:14;2.37;;;2.17;;
10343;SDS011;5217;43.960;10.954;2023-02-27T07:59:43;2.20;;;2.00;;
10343;SDS011;5217;43.960;10.954;2023-02-27T08:02:11;1.40;;;1.30;;
10343;SDS011;5217;43.960;10.954;2023-02-27T08:04:39;2.07;;;1.97;;
10343;SDS011;5217;43.960;10.954;2023-02-27T08:07:08;1.87;;;1.70;;
10343;SDS011;5217;43.960;10.954;2023-02-27T08:09:36;2.20;;;2.00;;
10343;SDS011;5217;43.960;10.954;2023-02-27T08:12:04;2.07;;;1.93;;
10343;SDS011;5217;43.960;10.954;2023-02-27T08:14:34;2.10;;;1.90;;
10343;SDS011;5217;43.960;10.954;2023-02-27T08:17:02;1.40;;;1.30;;
10343;SDS011;5217;43.960;10.954;2023-02-27T08:19:31;1.77;;;1.67;;
10343;SDS011;5217;43.960;10.954;2023-02-27T08:21:59;2.30;;;2.17;;
10343;SDS011;5217;43.960;10.954;2023-02-27T08:24:27;2.33;;;2.13;;
10343;SDS011;5217;43.960;10.954;2023-02-27T08:26:56;1.97;;;1.87;;
10343;SDS011;5217;43.960;10.954;2023-02-27T08:29:24;1.70;;;1.60;;
10343;SDS011;5217;43.960;10.954;2023-02-27T08:31:54;1.47;;;1.37;;
10343;SDS011;5217;43.960;10.954;2023-02-27T08:34:23;1.40;;;1.30;;
10343;SDS011;5217;43.960;10.954;2023-02-27T08:36:52;1.30;;;1.20;;
10343;SDS011;5217;43.960;10.954;2023-02-27T08:39:20;2.00;;;1.80;;
10343;SDS011;5217;43.960;10.954;2023-02-27T08:41:50;2.70;;;2.13;;
10343;SDS011;5217;43.960;10.954;2023-02-27T08:44:19;2.13;;;1.93;;
10343;SDS011;5217;43.960;10.954;2023-02-27T08:46:47;1.70;;;1.60;;
10343;SDS011;5217;43.960;10.954;2023-02-27T08:49:17;1.63;;;1.53;;
10343;SDS011;5217;43.960;10.954;2023-02-27T08:51:47;1.40;;;1.30;;
10343;SDS011;5217;43.960;10.954;2023-02-27T08:54:16;1.30;;;1.20;;
10343;SDS011;5217;43.960;10.954;2023-02-27T08:56:46;1.83;;;1.73;;
10343;SDS011;5217;43.960;10.954;2023-02-27T08:59:14;1.50;;;1.40;;
10343;SDS011;5217;43.960;10.954;2023-02-27T09:01:43;1.90;;;1.80;;
10343;SDS011;5217;43.960;10.954;2023-02-27T09:04:11;1.60;;;1.50;;
10343;SDS011;5217;43.960;10.954;2023-02-27T09:06:41;3.83;;;1.90;;
10343;SDS011;5217;43.960;10.954;2023-02-27T09:09:09;3.13;;;1.70;;
10343;SDS011;5217;43.960;10.954;2023-02-27T09:11:37;1.70;;;1.60;;
10343;SDS011;5217;43.960;10.954;2023-02-27T09:14:06;1.50;;;1.40;;
10343;SDS011;5217;43.960;10.954;2023-02-27T09:16:34;1.53;;;1.43;;
10343;SDS011;5217;43.960;10.954;2023-02-27T09:19:02;1.27;;;1.23;;
10343;SDS011;5217;43.960;10.954;2023-02-27T09:21:32;3.47;;;2.70;;
10343;SDS011;5217;43.960;10.954;2023-02-27T09:24:04;3.27;;;2.97;;
10343;SDS011;5217;43.960;10.954;2023-02-27T09:26:45;3.00;;;2.70;;
10343;SDS011;5217;43.960;10.954;2023-02-27T09:29:14;2.63;;;2.43;;
10343;SDS011;5217;43.960;10.954;2023-02-27T09:31:43;4.77;;;4.27;;
10343;SDS011;5217;43.960;10.954;2023-02-27T09:34:11;5.90;;;5.30;;
10343;SDS011;5217;43.960;10.954;2023-02-27T09:36:39;4.10;;;3.80;;
10343;SDS011;5217;43.960;10.954;2023-02-27T09:39:10;2.80;;;2.60;;
10343;SDS011;5217;43.960;10.954;2023-02-27T09:44:31;1.70;;;1.60;;
10343;SDS011;5217;43.960;10.954;2023-02-27T09:47:13;2.00;;;1.83;;
10343;SDS011;5217;43.960;10.954;2023-02-27T09:49:53;2.00;;;1.80;;
10343;SDS011;5217;43.960;10.954;2023-02-27T09:52:25;2.00;;;1.90;;
10343;SDS011;5217;43.960;10.954;2023-02-27T09:54:56;2.17;;;2.00;;
10343;SDS011;5217;43.960;10.954;2023-02-27T09:57:27;3.17;;;2.53;;
10343;SDS011;5217;43.960;10.954;2023-02-27T10:00:06;3.47;;;3.17;;
10343;SDS011;5217;43.960;10.954;2023-02-27T10:02:43;6.17;;;5.27;;
10343;SDS011;5217;43.960;10.954;2023-02-27T10:05:22;8.80;;;6.17;;
10343;SDS011;5217;43.960;10.954;2023-02-27T10:08:00;10.47;;;8.53;;
10343;SDS011;5217;43.960;10.954;2023-02-27T10:10:38;6.00;;;5.10;;
10343;SDS011;5217;43.960;10.954;2023-02-27T10:13:22;5.30;;;4.60;;
10343;SDS011;5217;43.960;10.954;2023-02-27T10:15:58;7.17;;;5.90;;
10343;SDS011;5217;43.960;10.954;2023-02-27T10:18:28;6.67;;;5.13;;
10343;SDS011;5217;43.960;10.954;2023-02-27T10:21:00;7.67;;;4.53;;
10343;SDS011;5217;43.960;10.954;2023-02-27T10:23:33;6.33;;;4.87;;
10343;SDS011;5217;43.960;10.954;2023-02-27T10:26:07;4.77;;;3.50;;
10343;SDS011;5217;43.960;10.954;2023-02-27T10:28:44;8.43;;;5.30;;
10343;SDS011;5217;43.960;10.954;2023-02-27T10:31:14;6.03;;;4.80;;
10343;SDS011;5217;43.960;10.954;2023-02-27T10:33:46;4.77;;;3.70;;
10343;SDS011;5217;43.960;10.954;2023-02-27T10:36:15;4.87;;;3.73;;
10343;SDS011;5217;43.960;10.954;2023-02-27T10:38:59;6.37;;;4.93;;
10343;SDS011;5217;43.960;10.954;2023-02-27T10:41:33;6.23;;;5.47;;
10343;SDS011;5217;43.960;10.954;2023-02-27T10:44:02;4.03;;;3.40;;
10343;SDS011;5217;43.960;10.954;2023-02-27T10:46:33;5.63;;;4.87;;
10343;SDS011;5217;43.960;10.954;2023-02-27T10:49:05;3.57;;;3.00;;
10343;SDS011;5217;43.960;10.954;2023-02-27T10:51:44;2.50;;;2.30;;
10343;SDS011;5217;43.960;10.954;2023-02-27T10:54:15;3.63;;;3.33;;
10343;SDS011;5217;43.960;10.954;2023-02-27T10:56:51;2.80;;;2.60;;
10343;SDS011;5217;43.960;10.954;2023-02-27T10:59:22;2.07;;;1.97;;
10343;SDS011;5217;43.960;10.954;2023-02-27T11:01:54;2.10;;;2.00;;
10343;SDS011;5217;43.960;10.954;2023-02-27T11:04:31;2.20;;;2.00;;
10343;SDS011;5217;43.960;10.954;2023-02-27T11:07:02;1.73;;;1.63;;
10343;SDS011;5217;43.960;10.954;2023-02-27T11:09:32;1.40;;;1.30;;
10343;SDS011;5217;43.960;10.954;2023-02-27T11:12:17;1.60;;;1.50;;
10343;SDS011;5217;43.960;10.954;2023-02-27T11:14:50;1.50;;;1.40;;
10343;SDS011;5217;43.960;10.954;2023-02-27T11:17:20;1.53;;;1.43;;
10343;SDS011;5217;43.960;10.954;2023-02-27T11:19:51;1.33;;;1.30;;
10343;SDS011;5217;43.960;10.954;2023-02-27T11:22:20;12.93;;;11.63;;
10343;SDS011;5217;43.960;10.954;2023-02-27T11:24:50;10.20;;;9.20;;
10343;SDS011;5217;43.960;10.954;2023-02-27T11:27:21;5.27;;;4.87;;
10343;SDS011;5217;43.960;10.954;2023-02-27T11:29:56;3.00;;;2.80;;
10343;SDS011;5217;43.960;10.954;2023-02-27T11:32:25;3.80;;;3.50;;
10343;SDS011;5217;43.960;10.954;2023-02-27T11:35:05;3.70;;;3.40;;
10343;SDS011;5217;43.960;10.954;2023-02-27T11:37:48;2.83;;;2.53;;
10343;SDS011;5217;43.960;10.954;2023-02-27T11:40:18;2.63;;;2.37;;
10343;SDS011;5217;43.960;10.954;2023-02-27T11:42:50;5.83;;;5.27;;
10343;SDS011;5217;43.960;10.954;2023-02-27T11:45:29;7.70;;;6.47;;
10343;SDS011;5217;43.960;10.954;2023-02-27T11:48:19;7.63;;;6.83;;
10343;SDS011;5217;43.960;10.954;2023-02-27T11:50:54;6.87;;;5.83;;
10343;SDS011;5217;43.960;10.954;2023-02-27T11:56:38;7.53;;;6.20;;
10343;SDS011;5217;43.960;10.954;2023-02-27T11:59:21;7.20;;;6.10;;
10343;SDS011;5217;43.960;10.954;2023-02-27T12:01:56;6.80;;;5.05;;
10343;SDS011;5217;43.960;10.954;2023-02-27T12:04:32;4.37;;;3.33;;
10343;SDS011;5217;43.960;10.954;2023-02-27T12:07:10;7.20;;;3.97;;
10343;SDS011;5217;43.960;10.954;2023-02-27T12:09:43;4.67;;;3.63;;
10343;SDS011;5217;43.960;10.954;2023-02-27T12:12:18;5.43;;;3.83;;
10343;SDS011;5217;43.960;10.954;2023-02-27T12:14:54;5.13;;;3.93;;
10343;SDS011;5217;43.960;10.954;2023-02-27T12:17:29;4.43;;;3.77;;
10343;SDS011;5217;43.960;10.954;2023-02-27T12:20:08;3.50;;;3.20;;
10343;SDS011;5217;43.960;10.954;2023-02-27T12:22:53;4.53;;;3.70;;
10343;SDS011;5217;43.960;10.954;2023-02-27T12:25:35;3.13;;;2.83;;
10343;SDS011;5217;43.960;10.954;2023-02-27T12:28:11;3.27;;;2.90;;
10343;SDS011;5217;43.960;10.954;2023-02-27T12:30:51;3.40;;;3.10;;
10343;SDS011;5217;43.960;10.954;2023-02-27T12:33:32;4.07;;;3.67;;
10343;SDS011;5217;43.960;10.954;2023-02-27T12:36:09;4.00;;;3.50;;
10343;SDS011;5217;43.960;10.954;2023-02-27T12:38:39;4.20;;;3.80;;
10343;SDS011;5217;43.960;10.954;2023-02-27T12:41:20;4.83;;;3.60;;
10343;SDS011;5217;43.960;10.954;2023-02-27T12:44:17;4.30;;;3.25;;
10343;SDS011;5217;43.960;10.954;2023-02-27T12:46:57;2.85;;;2.35;;
10343;SDS011;5217;43.960;10.954;2023-02-27T12:49:37;3.97;;;2.80;;
10343;SDS011;5217;43.960;10.954;2023-02-27T12:52:16;3.05;;;2.60;;
10343;SDS011;5217;43.960;10.954;2023-02-27T12:54:57;3.10;;;2.75;;
10343;SDS011;5217;43.960;10.954;2023-02-27T12:57:36;2.50;;;2.30;;
10343;SDS011;5217;43.960;10.954;2023-02-27T13:00:38;3.80;;;3.00;;
10343;SDS011;5217;43.960;10.954;2023-02-27T13:03:15;4.13;;;3.27;;
10343;SDS011;5217;43.960;10.954;2023-02-27T13:05:51;3.87;;;2.40;;
10343;SDS011;5217;43.960;10.954;2023-02-27T13:08:27;2.40;;;2.20;;
10343;SDS011;5217;43.960;10.954;2023-02-27T13:11:05;3.10;;;2.57;;
10343;SDS011;5217;43.960;10.954;2023-02-27T13:13:47;2.80;;;2.60;;
10343;SDS011;5217;43.960;10.954;2023-02-27T13:16:21;5.60;;;5.00;;
10343;SDS011;5217;43.960;10.954;2023-02-27T13:18:55;4.20;;;3.73;;
10343;SDS011;5217;43.960;10.954;2023-02-27T13:21:26;5.53;;;4.50;;
10343;SDS011;5217;43.960;10.954;2023-02-27T13:24:07;5.50;;;4.53;;
10343;SDS011;5217;43.960;10.954;2023-02-27T13:26:50;4.60;;;3.87;;
10343;SDS011;5217;43.960;10.954;2023-02-27T13:29:26;5.27;;;4.47;;
10343;SDS011;5217;43.960;10.954;2023-02-27T13:32:03;6.67;;;4.73;;
10343;SDS011;5217;43.960;10.954;2023-02-27T13:34:44;7.90;;;5.23;;
10343;SDS011;5217;43.960;10.954;2023-02-27T13:37:15;6.80;;;5.23;;
10343;SDS011;5217;43.960;10.954;2023-02-27T13:39:51;5.80;;;4.83;;
10343;SDS011;5217;43.960;10.954;2023-02-27T13:51:05;9.10;;;7.93;;
10343;SDS011;5217;43.960;10.954;2023-02-27T13:54:05;9.83;;;8.17;;
10343;SDS011;5217;43.960;10.954;2023-02-27T13:56:49;8.27;;;6.83;;
10343;SDS011;5217;43.960;10.954;2023-02-27T13:59:32;8.77;;;7.70;;
10343;SDS011;5217;43.960;10.954;2023-02-27T14:02:03;7.30;;;6.43;;
10343;SDS011;5217;43.960;10.954;2023-02-27T14:04:53;5.40;;;4.90;;
10343;SDS011;5217;43.960;10.954;2023-02-27T14:07:25;6.73;;;5.87;;
10343;SDS011;5217;43.960;10.954;2023-02-27T14:09:59;6.47;;;5.77;;
10343;SDS011;5217;43.960;10.954;2023-02-27T14:12:31;7.00;;;5.77;;
10343;SDS011;5217;43.960;10.954;2023-02-27T14:24:17;6.47;;;4.83;;
10343;SDS011;5217;43.960;10.954;2023-02-27T14:26:48;6.70;;;6.00;;
10343;SDS011;5217;43.960;10.954;2023-02-27T14:29:19;8.93;;;6.90;;
10343;SDS011;5217;43.960;10.954;2023-02-27T14:31:50;10.27;;;7.50;;
10343;SDS011;5217;43.960;10.954;2023-02-27T14:34:20;8.20;;;6.30;;
10343;SDS011;5217;43.960;10.954;2023-02-27T14:36:50;8.70;;;6.93;;
10343;SDS011;5217;43.960;10.954;2023-02-27T14:39:23;5.83;;;5.23;;
10343;SDS011;5217;43.960;10.954;2023-02-27T14:41:58;3.73;;;3.43;;
10343;SDS011;5217;43.960;10.954;2023-02-27T14:44:39;3.40;;;3.10;;
10343;SDS011;5217;43.960;10.954;2023-02-27T14:47:12;10.70;;;9.70;;
10343;SDS011;5217;43.960;10.954;2023-02-27T14:49:44;5.47;;;4.90;;
10343;SDS011;5217;43.960;10.954;2023-02-27T14:52:21;3.40;;;3.10;;
10343;SDS011;5217;43.960;10.954;2023-02-27T14:54:59;4.17;;;3.77;;
10343;SDS011;5217;43.960;10.954;2023-02-27T14:57:38;7.33;;;6.63;;
10343;SDS011;5217;43.960;10.954;2023-02-27T15:03:06;5.30;;;4.80;;
10343;SDS011;5217;43.960;10.954;2023-02-27T15:05:42;4.27;;;3.87;;
10343;SDS011;5217;43.960;10.954;2023-02-27T15:08:16;5.33;;;3.97;;
10343;SDS011;5217;43.960;10.954;2023-02-27T15:10:48;5.40;;;4.60;;
10343;SDS011;5217;43.960;10.954;2023-02-27T15:13:20;5.93;;;5.33;;
10343;SDS011;5217;43.960;10.954;2023-02-27T15:15:56;8.57;;;7.53;;
10343;SDS011;5217;43.960;10.954;2023-02-27T15:21:46;7.07;;;6.37;;
10343;SDS011;5217;43.960;10.954;2023-02-27T15:24:20;9.17;;;7.83;;
10343;SDS011;5217;43.960;10.954;2023-02-27T15:26:53;8.80;;;7.90;;
10343;SDS011;5217;43.960;10.954;2023-02-27T15:29:24;13.03;;;11.63;;
10343;SDS011;5217;43.960;10.954;2023-02-27T15:31:57;35.40;;;28.20;;
10343;SDS011;5217;43.960;10.954;2023-02-27T15:34:25;35.13;;;27.63;;
10343;SDS011;5217;43.960;10.954;2023-02-27T15:36:55;17.27;;;15.50;;
10343;SDS011;5217;43.960;10.954;2023-02-27T15:39:25;14.20;;;12.73;;
10343;SDS011;5217;43.960;10.954;2023-02-27T15:41:58;12.37;;;10.87;;
10343;SDS011;5217;43.960;10.954;2023-02-27T15:44:29;10.20;;;9.20;;
10343;SDS011;5217;43.960;10.954;2023-02-27T15:47:02;21.37;;;19.23;;
10343;SDS011;5217;43.960;10.954;2023-02-27T15:49:31;17.83;;;15.40;;
10343;SDS011;5217;43.960;10.954;2023-02-27T15:52:00;13.37;;;11.60;;
10343;SDS011;5217;43.960;10.954;2023-02-27T15:54:32;15.37;;;13.70;;
10343;SDS011;5217;43.960;10.954;2023-02-27T15:57:03;11.57;;;10.37;;
10343;SDS011;5217;43.960;10.954;2023-02-27T15:59:34;7.17;;;6.43;;
10343;SDS011;5217;43.960;10.954;2023-02-27T16:02:09;9.57;;;8.57;;